Time;durP1;ratioP1;P1;durP2;ratioP2;P2;SDS_P1;SDS_P2;PMS_P1;PMS_P2;Temp;Humidity;BMP_temperature;BMP_pressure;BME280_temperature;BME280_humidity;BME280_pressure;Samples;Min_cycle;Max_cycle;Signal;HPM_P1;HPM_P2
2023/07/06 00:02:03;;;;;;;3.40;1.45;;;;;;;;;;5092361;28;20135;-34
2023/07/06 00:04:30;;;;;;;2.35;1.55;;;;;;;;;;5092015;28;20048;-36
2023/07/06 00:06:57;;;;;;;1.65;1.50;;;19.50;79.00;;;;;;5092151;28;20131;-38
2023/07/06 00:09:25;;;;;;;2.78;1.63;;;20.70;79.40;;;;;;5091185;28;20175;-38
2023/07/06 00:11:52;;;;;;;3.03;1.55;;;19.70;77.40;;;;;;5072880;28;20136;-37
2023/07/06 00:14:18;;;;;;;3.47;1.70;;;18.90;67.30;;;;;;5071233;28;20123;-35
2023/07/06 00:16:47;;;;;;;2.33;1.52;;;20.40;79.20;;;;;;5071436;28;20044;-37
2023/07/06 00:19:17;;;;;;;3.67;1.50;;;19.70;79.70;;;;;;5071892;28;20453;-35
2023/07/06 00:21:45;;;;;;;2.63;1.60;;;;;;;;;;5071750;28;20113;-35
2023/07/06 00:24:11;;;;;;;2.40;1.58;;;19.30;78.70;;;;;;5071317;28;20391;-39
2023/07/06 00:26:39;;;;;;;1.90;1.60;;;19.60;78.90;;;;;;5073031;28;20049;-38
2023/07/06 00:29:06;;;;;;;2.08;1.55;;;;;;;;;;5075154;28;20849;-40
2023/07/06 00:31:40;;;;;;;1.90;1.50;;;19.90;79.30;;;;;;5091880;28;20468;-34
2023/07/06 00:34:09;;;;;;;1.88;1.48;;;;;;;;;;5091641;28;20059;-36
2023/07/06 00:36:37;;;;;;;1.90;1.50;;;;;;;;;;5091455;28;20071;-38
2023/07/06 00:39:04;;;;;;;2.38;1.55;;;;;;;;;;5091866;28;20075;-39
2023/07/06 00:41:32;;;;;;;2.80;1.60;;;20.20;67.80;;;;;;5089814;28;20060;-36
2023/07/06 00:44:00;;;;;;;3.95;2.17;;;19.50;79.30;;;;;;5071479;28;20049;-39
2023/07/06 00:46:29;;;;;;;2.50;1.60;;;19.20;79.10;;;;;;5071505;28;20131;-37
2023/07/06 00:48:56;;;;;;;2.47;1.60;;;19.80;70.80;;;;;;5071185;28;20049;-39
2023/07/06 00:51:25;;;;;;;2.08;1.40;;;19.50;79.10;;;;;;5071417;28;20131;-37
2023/07/06 00:53:56;;;;;;;2.45;1.60;;;19.50;61.60;;;;;;5070987;28;20569;-36
2023/07/06 00:56:25;;;;;;;1.92;1.45;;;19.70;79.60;;;;;;5071769;28;20103;-39
2023/07/06 00:58:54;;;;;;;2.05;1.58;;;19.70;78.90;;;;;;5072448;28;20064;-37
2023/07/06 01:01:22;;;;;;;3.25;1.70;;;19.40;79.30;;;;;;5071274;28;20131;-39
2023/07/06 01:03:52;;;;;;;2.10;1.70;;;18.20;78.40;;;;;;5071109;28;20135;-39
2023/07/06 01:06:23;;;;;;;2.60;1.80;;;20.00;79.60;;;;;;5071089;28;20044;-36
2023/07/06 01:08:50;;;;;;;2.10;1.75;;;19.60;65.50;;;;;;5071056;28;20048;-37
2023/07/06 01:11:17;;;;;;;2.58;1.60;;;19.70;79.90;;;;;;5071204;28;20051;-36
2023/07/06 01:13:47;;;;;;;2.55;1.85;;;19.40;61.50;;;;;;5071972;28;20391;-37
2023/07/06 01:16:15;;;;;;;3.22;1.80;;;19.50;79.20;;;;;;5071201;28;20049;-38
2023/07/06 01:18:45;;;;;;;2.83;1.70;;;19.50;79.10;;;;;;5071387;28;20135;-37
2023/07/06 01:21:14;;;;;;;3.40;1.90;;;19.60;79.10;;;;;;5073312;28;20131;-39
2023/07/06 01:23:57;;;;;;;2.50;2.00;;;19.40;61.40;;;;;;5074632;28;20131;-36
2023/07/06 01:26:44;;;;;;;2.42;1.75;;;19.40;61.40;;;;;;5074518;28;20639;-37
2023/07/06 01:29:22;;;;;;;3.03;1.80;;;19.00;78.70;;;;;;5094391;28;20055;-38
2023/07/06 01:31:51;;;;;;;2.30;1.80;;;18.90;61.20;;;;;;5075852;28;20123;-38
2023/07/06 01:34:21;;;;;;;2.78;1.90;;;19.80;79.20;;;;;;5074669;28;20131;-36
2023/07/06 01:36:51;;;;;;;2.53;1.70;;;19.30;79.70;;;;;;5082100;28;20081;-36
2023/07/06 01:39:19;;;;;;;3.03;2.10;;;19.20;78.80;;;;;;5094692;28;20139;-36
2023/07/06 01:41:46;;;;;;;2.50;1.67;;;19.60;62.00;;;;;;5094372;28;20475;-36
2023/07/06 01:44:14;;;;;;;2.85;1.80;;;18.30;78.10;;;;;;5094175;28;20113;-37
2023/07/06 01:46:43;;;;;;;3.05;1.80;;;19.30;61.50;;;;;;5083868;28;20131;-36
2023/07/06 01:49:11;;;;;;;3.13;2.00;;;19.30;78.90;;;;;;5074345;28;20048;-39
2023/07/06 01:51:42;;;;;;;3.47;1.90;;;20.40;79.90;;;;;;5074390;28;20131;-39
2023/07/06 01:54:12;;;;;;;2.55;1.88;;;19.40;61.50;;;;;;5073781;28;20048;-36
2023/07/06 01:56:43;;;;;;;2.42;1.58;;;19.50;79.40;;;;;;5073854;28;20051;-37
2023/07/06 01:59:11;;;;;;;2.45;2.25;;;19.40;79.30;;;;;;5074237;28;20063;-35
2023/07/06 02:01:40;;;;;;;2.33;2.00;;;19.40;61.50;;;;;;5075269;28;20128;-36
2023/07/06 02:04:07;;;;;;;4.50;1.70;;;;;;;;;;5091675;28;20137;-39
2023/07/06 02:06:35;;;;;;;2.45;1.80;;;19.30;61.50;;;;;;5094065;28;20131;-35
2023/07/06 02:09:03;;;;;;;2.28;1.95;;;19.20;71.60;;;;;;5094090;28;20100;-40
2023/07/06 02:11:30;;;;;;;2.45;1.90;;;19.10;65.10;;;;;;5093866;28;20048;-37
2023/07/06 02:13:57;;;;;;;2.42;2.00;;;20.20;79.40;;;;;;5090923;28;20127;-39
2023/07/06 02:16:23;;;;;;;2.10;1.67;;;18.60;78.90;;;;;;5071994;28;20627;-41
2023/07/06 02:18:52;;;;;;;3.15;1.88;;;19.10;67.90;;;;;;5073803;28;20131;-36
2023/07/06 02:21:21;;;;;;;2.30;1.75;;;;;;;;;;5073440;28;20062;-40
2023/07/06 02:23:49;;;;;;;4.40;1.90;;;20.10;63.10;;;;;;5079778;28;20101;-37
2023/07/06 02:26:16;;;;;;;3.03;1.92;;;;;;;;;;5093963;28;20127;-37
2023/07/06 02:28:43;;;;;;;2.78;1.90;;;20.00;65.60;;;;;;5093585;28;20052;-40
2023/07/06 02:31:10;;;;;;;4.32;2.08;;;;;;;;;;5084714;28;20127;-38
2023/07/06 02:33:37;;;;;;;2.55;1.85;;;19.20;78.80;;;;;;5092744;28;20131;-38
2023/07/06 02:36:04;;;;;;;2.08;1.88;;;18.70;78.80;;;;;;5092691;28;20050;-39
2023/07/06 02:38:31;;;;;;;3.05;2.05;;;;;;;;;;5093644;28;20126;-39
2023/07/06 02:41:04;;;;;;;2.92;1.73;;;19.20;78.80;;;;;;5093545;28;20158;-39
2023/07/06 02:43:31;;;;;;;3.70;2.17;;;;;;;;;;5092431;28;20040;-36
2023/07/06 02:45:57;;;;;;;3.15;2.10;;;19.40;79.30;;;;;;5093400;28;20126;-41
2023/07/06 02:48:24;;;;;;;3.72;1.88;;;18.70;78.80;;;;;;5093283;28;20136;-40
2023/07/06 02:50:51;;;;;;;2.25;1.60;;;19.60;72.90;;;;;;5093171;28;20056;-38
2023/07/06 02:53:18;;;;;;;2.60;1.70;;;19.10;79.50;;;;;;5092778;28;20556;-40
2023/07/06 02:55:46;;;;;;;3.33;1.67;;;;;;;;;;5073700;28;20045;-38
2023/07/06 02:58:14;;;;;;;2.47;1.77;;;19.50;79.30;;;;;;5073010;28;20055;-41
2023/07/06 03:00:41;;;;;;;2.78;1.70;;;19.30;72.80;;;;;;5072776;28;20051;-41
2023/07/06 03:03:08;;;;;;;2.03;1.70;;;20.10;72.20;;;;;;5083150;28;20086;-38
2023/07/06 03:05:35;;;;;;;2.35;1.80;;;20.40;80.10;;;;;;5077208;28;20559;-39
2023/07/06 03:08:02;;;;;;;2.25;1.80;;;19.10;79.30;;;;;;5072888;28;20052;-40
2023/07/06 03:10:30;;;;;;;3.03;1.65;;;19.40;79.50;;;;;;5072711;28;20140;-40
2023/07/06 03:12:57;;;;;;;2.25;1.63;;;19.50;79.10;;;;;;5072285;28;20049;-40
2023/07/06 03:15:25;;;;;;;2.60;1.80;;;20.20;68.10;;;;;;5072610;28;20048;-40
2023/07/06 03:17:52;;;;;;;2.67;1.65;;;19.40;69.00;;;;;;5076536;28;20087;-36
2023/07/06 03:20:19;;;;;;;3.22;1.80;;;19.30;61.90;;;;;;5092628;28;20154;-40
2023/07/06 03:22:48;;;;;;;2.22;1.70;;;18.90;76.30;;;;;;5092667;28;20052;-37
2023/07/06 03:25:16;;;;;;;2.42;1.85;;;19.60;79.40;;;;;;5092878;28;20077;-40
2023/07/06 03:27:43;;;;;;;2.72;1.73;;;19.20;72.10;;;;;;5092644;28;20123;-37
2023/07/06 03:30:11;;;;;;;2.10;1.80;;;19.10;79.10;;;;;;5092440;28;20074;-40
2023/07/06 03:32:39;;;;;;;2.05;1.60;;;19.30;61.90;;;;;;5092435;28;20048;-40
2023/07/06 03:35:06;;;;;;;1.83;1.55;;;19.60;79.90;;;;;;5076552;28;20044;-39
2023/07/06 03:37:33;;;;;;;2.15;1.73;;;20.00;79.60;;;;;;5086123;28;20052;-40
2023/07/06 03:40:00;;;;;;;3.78;1.73;;;20.50;80.10;;;;;;5092356;28;20048;-40
2023/07/06 03:42:27;;;;;;;2.22;1.63;;;;;;;;;;5092477;28;20070;-36
2023/07/06 03:44:55;;;;;;;3.05;1.80;;;20.40;70.40;;;;;;5091771;28;20130;-41
2023/07/06 03:47:23;;;;;;;3.22;1.70;;;19.30;79.40;;;;;;5092499;28;20051;-32
2023/07/06 03:49:52;;;;;;;2.22;1.88;;;19.40;79.40;;;;;;5086248;28;20448;-31
2023/07/06 03:52:19;;;;;;;2.45;1.90;;;;;;;;;;5072030;28;20133;-34
2023/07/06 03:54:46;;;;;;;2.90;1.90;;;19.60;79.20;;;;;;5071914;28;20131;-31
2023/07/06 03:57:16;;;;;;;2.45;1.70;;;;;;;;;;5071783;28;20133;-32
2023/07/06 03:59:42;;;;;;;3.25;1.90;;;19.50;79.50;;;;;;5072069;28;20059;-31
2023/07/06 04:02:09;;;;;;;1.90;1.70;;;18.60;64.40;;;;;;5072040;28;20147;-33
2023/07/06 04:04:36;;;;;;;2.38;1.83;;;19.30;79.30;;;;;;5072015;28;20052;-31
2023/07/06 04:07:07;;;;;;;2.63;1.80;;;19.40;61.80;;;;;;5091001;28;20044;-34
2023/07/06 04:09:36;;;;;;;3.90;1.85;;;20.10;79.60;;;;;;5092025;28;20052;-30
2023/07/06 04:12:03;;;;;;;2.35;1.90;;;20.20;80.10;;;;;;5091746;28;20048;-31
2023/07/06 04:14:29;;;;;;;2.28;1.75;;;18.20;63.40;;;;;;5091901;28;20105;-34
2023/07/06 04:16:56;;;;;;;2.13;1.80;;;18.30;78.60;;;;;;5091655;28;20565;-31
2023/07/06 04:19:24;;;;;;;2.45;1.65;;;19.30;79.50;;;;;;5091622;28;20617;-31
2023/07/06 04:21:51;;;;;;;1.98;1.60;;;18.60;78.70;;;;;;5091082;28;20123;-33
2023/07/06 04:24:19;;;;;;;2.15;1.60;;;19.50;61.70;;;;;;5091488;28;20048;-34
2023/07/06 04:26:46;;;;;;;1.92;1.60;;;;;;;;;;5091729;28;20123;-34
2023/07/06 04:29:13;;;;;;;2.20;1.90;;;20.00;79.80;;;;;;5091669;28;20128;-32
2023/07/06 04:31:40;;;;;;;2.28;1.70;;;19.50;79.40;;;;;;5091817;28;20051;-31
2023/07/06 04:34:07;;;;;;;2.20;1.60;;;19.20;62.80;;;;;;5091036;28;20055;-32
2023/07/06 04:36:34;;;;;;;2.47;1.70;;;19.40;66.40;;;;;;5091225;28;20469;-34
2023/07/06 04:39:01;;;;;;;1.98;1.70;;;19.20;65.70;;;;;;5083931;28;20565;-31
2023/07/06 04:41:29;;;;;;;2.83;2.00;;;19.20;79.30;;;;;;5072001;28;20127;-31
2023/07/06 04:43:56;;;;;;;4.05;1.70;;;;;;;;;;5071722;28;20060;-36
2023/07/06 04:46:23;;;;;;;2.03;1.70;;;20.00;79.60;;;;;;5071579;28;20059;-31
2023/07/06 04:48:52;;;;;;;2.30;1.80;;;20.20;79.20;;;;;;5071649;28;20136;-31
2023/07/06 04:51:19;;;;;;;2.25;1.95;;;20.20;69.00;;;;;;5080526;28;20052;-34
2023/07/06 04:53:48;;;;;;;3.40;1.70;;;19.80;79.10;;;;;;5079907;28;20048;-31
2023/07/06 04:56:15;;;;;;;4.32;1.70;;;;;;;;;;5083359;28;20047;-36
2023/07/06 04:58:45;;;;;;;2.47;1.50;;;19.80;78.60;;;;;;5084562;28;20126;-32
2023/07/06 05:01:11;;;;;;;2.17;1.60;;;20.20;78.70;;;;;;5083815;28;20525;-32
2023/07/06 05:03:38;;;;;;;3.40;1.75;;;20.20;79.30;;;;;;5083819;28;20123;-31
2023/07/06 05:06:08;;;;;;;2.00;1.73;;;20.20;61.00;;;;;;5085825;28;20420;-37
2023/07/06 05:08:35;;;;;;;2.50;1.80;;;20.20;78.40;;;;;;5084759;28;20131;-32
2023/07/06 05:11:03;;;;;;;2.35;1.73;;;20.40;68.70;;;;;;5084387;28;20131;-38
2023/07/06 05:13:30;;;;;;;2.35;1.70;;;20.70;77.60;;;;;;5092108;28;20132;-36
2023/07/06 05:15:58;;;;;;;2.10;1.50;;;20.40;77.90;;;;;;5092887;28;20040;-38
2023/07/06 05:18:25;;;;;;;2.20;1.50;;;19.80;77.10;;;;;;5084419;28;20126;-38
2023/07/06 05:20:53;;;;;;;1.85;1.50;;;21.60;60.80;;;;;;5086460;28;20124;-35
2023/07/06 05:23:20;;;;;;;2.17;1.60;;;21.60;72.90;;;;;;5081532;28;20056;-36
2023/07/06 05:25:47;;;;;;;2.53;1.70;;;20.30;77.00;;;;;;5074833;28;20123;-39
2023/07/06 05:28:19;;;;;;;2.03;1.50;;;20.70;76.60;;;;;;5074729;28;20053;-39
2023/07/06 05:30:46;;;;;;;2.50;1.60;;;;;;;;;;5092642;28;20131;-35
2023/07/06 05:33:14;;;;;;;2.72;1.90;;;21.30;65.30;;;;;;5078382;28;20131;-37
2023/07/06 05:35:42;;;;;;;2.35;1.48;;;20.10;76.40;;;;;;5082480;28;20055;-37
2023/07/06 05:38:10;;;;;;;2.10;1.45;;;21.10;76.20;;;;;;5081689;28;20076;-38
2023/07/06 05:40:37;;;;;;;1.90;1.42;;;20.70;76.00;;;;;;5083224;28;20497;-38
2023/07/06 05:43:03;;;;;;;1.77;1.40;;;20.90;76.50;;;;;;5083616;28;20131;-38
2023/07/06 05:45:30;;;;;;;1.88;1.52;;;;;;;;;;5082389;28;20169;-35
2023/07/06 05:47:58;;;;;;;2.28;1.60;;;21.20;76.00;;;;;;5081544;28;20048;-37
2023/07/06 05:50:26;;;;;;;1.75;1.50;;;21.40;59.40;;;;;;5081192;28;20129;-36
2023/07/06 05:52:53;;;;;;;2.03;1.70;;;;;;;;;;5083100;28;20044;-34
2023/07/06 05:55:20;;;;;;;2.95;1.70;;;22.70;76.90;;;;;;5080317;28;20533;-37
2023/07/06 05:57:47;;;;;;;1.85;1.50;;;;;;;;;;5073899;28;20102;-36
2023/07/06 06:00:15;;;;;;;2.10;1.50;;;21.70;75.80;;;;;;5074375;28;20059;-39
2023/07/06 06:02:43;;;;;;;2.33;1.88;;;21.70;75.50;;;;;;5074010;28;20055;-36
2023/07/06 06:05:11;;;;;;;2.15;1.40;;;22.90;76.60;;;;;;5091221;28;20460;-39
2023/07/06 06:07:39;;;;;;;1.88;1.50;;;21.70;75.50;;;;;;5092990;28;20044;-37
2023/07/06 06:10:06;;;;;;;2.78;1.73;;;21.60;66.20;;;;;;5093791;28;20051;-38
2023/07/06 06:12:33;;;;;;;1.92;1.52;;;20.80;75.00;;;;;;5094014;28;20167;-39
2023/07/06 06:15:01;;;;;;;2.35;1.50;;;22.00;76.40;;;;;;5093972;28;20060;-36
2023/07/06 06:17:28;;;;;;;1.83;1.40;;;22.20;76.40;;;;;;5094239;28;20051;-37
2023/07/06 06:19:55;;;;;;;2.35;1.60;;;21.80;66.10;;;;;;5084595;28;20045;-36
2023/07/06 06:22:22;;;;;;;1.92;1.40;;;;;;;;;;5081436;28;20070;-35
2023/07/06 06:24:50;;;;;;;2.03;1.50;;;23.20;76.30;;;;;;5073629;28;20076;-39
2023/07/06 06:27:17;;;;;;;2.00;1.42;;;22.20;75.20;;;;;;5073967;28;20124;-31
2023/07/06 06:29:44;;;;;;;2.05;1.23;;;22.00;75.30;;;;;;5082965;28;20070;-32
2023/07/06 06:32:11;;;;;;;2.55;1.42;;;22.20;75.60;;;;;;5093278;28;20463;-33
2023/07/06 06:34:38;;;;;;;2.53;1.75;;;;;;;;;;5093919;28;20126;-35
2023/07/06 06:37:06;;;;;;;3.33;1.52;;;22.20;74.70;;;;;;5087291;28;20135;-32
2023/07/06 06:39:32;;;;;;;2.22;1.60;;;22.00;74.60;;;;;;5083942;28;20066;-32
2023/07/06 06:42:02;;;;;;;2.58;1.63;;;23.00;75.10;;;;;;5082773;28;20151;-31
2023/07/06 06:44:29;;;;;;;2.88;1.50;;;21.40;74.20;;;;;;5082070;28;20127;-32
2023/07/06 06:46:58;;;;;;;2.47;1.63;;;21.70;64.00;;;;;;5080700;28;20048;-32
2023/07/06 06:49:25;;;;;;;2.33;1.40;;;22.60;74.90;;;;;;5073304;28;20505;-32
2023/07/06 06:51:52;;;;;;;2.33;1.48;;;;;;;;;;5075522;28;20493;-37
2023/07/06 06:54:19;;;;;;;2.63;1.50;;;22.20;75.40;;;;;;5072820;28;20127;-32
2023/07/06 06:56:46;;;;;;;3.28;1.60;;;22.10;74.70;;;;;;5084129;28;20131;-31
2023/07/06 06:59:14;;;;;;;2.30;1.60;;;22.20;58.40;;;;;;5073498;28;20079;-34
2023/07/06 07:01:41;;;;;;;2.03;1.50;;;;;;;;;;5076660;28;20055;-34
2023/07/06 07:04:09;;;;;;;2.28;1.58;;;22.10;63.20;;;;;;5072846;28;20072;-31
2023/07/06 07:06:36;;;;;;;2.20;1.65;;;23.20;75.20;;;;;;5088805;28;20047;-31
2023/07/06 07:09:04;;;;;;;2.75;1.48;;;22.20;70.50;;;;;;5082078;28;20083;-33
2023/07/06 07:11:31;;;;;;;2.30;1.58;;;;;;;;;;5081747;28;20895;-34
2023/07/06 07:13:58;;;;;;;2.65;1.50;;;22.20;75.60;;;;;;5083085;28;20513;-31
2023/07/06 07:16:26;;;;;;;2.67;1.52;;;21.00;74.30;;;;;;5077654;28;20055;-31
2023/07/06 07:18:54;;;;;;;2.75;1.70;;;22.10;75.10;;;;;;5072159;28;20774;-31
2023/07/06 07:21:21;;;;;;;1.90;1.40;;;23.00;70.30;;;;;;5072806;28;20071;-31
2023/07/06 07:23:48;;;;;;;2.20;1.60;;;22.40;61.60;;;;;;5072333;28;20062;-34
2023/07/06 07:26:16;;;;;;;3.08;1.60;;;21.90;75.70;;;;;;5085324;28;20131;-31
2023/07/06 07:28:43;;;;;;;2.47;1.63;;;21.00;74.40;;;;;;5074197;28;20135;-31
2023/07/06 07:31:11;;;;;;;2.20;1.42;;;21.60;65.00;;;;;;5092559;28;20052;-33
2023/07/06 07:33:41;;;;;;;1.73;1.60;;;22.00;58.50;;;;;;5092567;28;20409;-34
2023/07/06 07:36:09;;;;;;;2.35;1.52;;;21.70;75.70;;;;;;5091956;28;20052;-31
2023/07/06 07:38:36;;;;;;;2.28;1.48;;;;;;;;;;5092872;28;20056;-34
2023/07/06 07:41:03;;;;;;;2.50;1.50;;;21.80;75.40;;;;;;5083626;28;20048;-32
2023/07/06 07:43:32;;;;;;;2.13;1.58;;;22.00;58.60;;;;;;5073555;28;20044;-31
2023/07/06 07:46:03;;;;;;;3.22;1.65;;;21.80;74.60;;;;;;5078768;28;20045;-31
2023/07/06 07:48:30;;;;;;;2.58;1.70;;;;;;;;;;5078955;28;20044;-35
2023/07/06 07:51:01;;;;;;;6.00;1.65;;;21.50;75.00;;;;;;5077658;28;20482;-31
2023/07/06 07:53:27;;;;;;;3.00;1.60;;;23.10;75.50;;;;;;5071827;28;20086;-31
2023/07/06 07:55:55;;;;;;;2.00;1.40;;;;;;;;;;5081555;28;20048;-34
2023/07/06 07:58:23;;;;;;;1.98;1.40;;;;;;;;;;5078365;28;20080;-34
2023/07/06 08:00:50;;;;;;;3.38;1.50;;;23.10;75.70;;;;;;5092256;28;20051;-31
2023/07/06 08:03:17;;;;;;;3.17;1.60;;;;;;;;;;5091516;28;20048;-36
2023/07/06 08:05:44;;;;;;;2.50;1.63;;;;;;;;;;5091689;28;20126;-31
2023/07/06 08:08:12;;;;;;;2.95;1.60;;;21.80;58.80;;;;;;5083777;28;20127;-34
2023/07/06 08:10:39;;;;;;;3.53;1.70;;;21.90;62.30;;;;;;5078198;28;20044;-32
2023/07/06 08:13:07;;;;;;;3.00;1.70;;;21.10;74.60;;;;;;5071726;28;20131;-31
2023/07/06 08:15:34;;;;;;;2.38;1.60;;;21.70;75.20;;;;;;5071818;28;20048;-30
2023/07/06 08:18:03;;;;;;;2.70;1.70;;;21.30;74.80;;;;;;5071681;28;20497;-30
2023/07/06 08:20:29;;;;;;;2.08;1.50;;;22.80;75.30;;;;;;5071879;28;20059;-31
2023/07/06 08:22:58;;;;;;;2.53;1.55;;;21.90;75.90;;;;;;5076756;28;20047;-30
2023/07/06 08:25:28;;;;;;;2.70;1.90;;;21.50;68.20;;;;;;5071561;28;20528;-31
2023/07/06 08:27:56;;;;;;;2.50;1.60;;;;;;;;;;5071730;28;20561;-32
2023/07/06 08:30:22;;;;;;;2.30;1.50;;;20.90;74.40;;;;;;5087396;28;20051;-30
2023/07/06 08:32:50;;;;;;;2.60;1.60;;;;;;;;;;5095728;28;20635;-35
2023/07/06 08:35:17;;;;;;;3.10;1.58;;;21.90;75.00;;;;;;5096247;28;20126;-31
2023/07/06 08:37:44;;;;;;;3.42;1.83;;;;;;;;;;5094747;28;20520;-35
2023/07/06 08:40:12;;;;;;;2.30;1.50;;;22.50;75.30;;;;;;5090217;28;20132;-39
2023/07/06 08:42:41;;;;;;;2.72;1.65;;;21.80;58.80;;;;;;5075674;28;20131;-39
2023/07/06 08:45:09;;;;;;;3.67;1.60;;;21.80;58.80;;;;;;5080064;28;20048;-39
2023/07/06 08:47:37;;;;;;;2.97;1.45;;;;;;;;;;5075925;28;20155;-39
2023/07/06 08:50:07;;;;;;;2.75;1.60;;;21.40;58.80;;;;;;5074030;28;20501;-36
2023/07/06 08:52:34;;;;;;;2.50;1.60;;;;;;;;;;5074064;28;20497;-34
2023/07/06 08:55:01;;;;;;;3.40;1.75;;;22.50;66.30;;;;;;5084938;28;20067;-37
2023/07/06 08:57:28;;;;;;;4.97;1.83;;;21.50;74.90;;;;;;5093934;28;20068;-39
2023/07/06 08:59:56;;;;;;;3.75;1.70;;;22.00;76.00;;;;;;5074058;28;20048;-40
2023/07/06 09:02:24;;;;;;;2.60;1.70;;;22.60;69.00;;;;;;5091853;28;20136;-39
2023/07/06 09:04:51;;;;;;;4.03;1.60;;;21.40;60.80;;;;;;5075045;28;20131;-37
2023/07/06 09:07:19;;;;;;;3.08;1.80;;;21.60;75.80;;;;;;5075116;28;20123;-40
2023/07/06 09:09:47;;;;;;;2.60;1.70;;;22.40;75.60;;;;;;5076269;28;20048;-36
2023/07/06 09:12:15;;;;;;;4.13;1.70;;;21.60;59.10;;;;;;5074782;28;20061;-38
2023/07/06 09:14:42;;;;;;;4.95;2.13;;;22.60;76.30;;;;;;5075003;28;20056;-37
2023/07/06 09:17:16;;;;;;;3.55;1.73;;;21.80;70.70;;;;;;5085423;28;20051;-37
2023/07/06 09:19:44;;;;;;;3.70;1.83;;;;;;;;;;5095256;28;20505;-39
2023/07/06 09:22:11;;;;;;;4.85;1.85;;;;;;;;;;5094854;28;20313;-32
2023/07/06 09:24:37;;;;;;;4.00;1.95;;;21.10;76.20;;;;;;5094875;28;20047;-38
2023/07/06 09:27:09;;;;;;;4.53;1.70;;;21.20;67.20;;;;;;5086750;28;20134;-38
2023/07/06 09:29:37;;;;;;;4.13;1.90;;;22.30;76.80;;;;;;5093348;28;20059;-37
2023/07/06 09:32:14;;;;;;;3.67;1.70;;;22.60;76.00;;;;;;5094004;28;20404;-36
2023/07/06 09:34:44;;;;;;;3.25;1.92;;;21.60;59.40;;;;;;5094759;28;20125;-39
2023/07/06 09:37:13;;;;;;;4.57;1.80;;;21.60;59.40;;;;;;5094183;28;20059;-36
2023/07/06 09:39:40;;;;;;;2.72;1.90;;;21.40;72.60;;;;;;5091542;28;20052;-40
2023/07/06 09:42:10;;;;;;;2.35;1.60;;;21.50;75.20;;;;;;5081307;28;20501;-37
2023/07/06 09:44:38;;;;;;;4.03;1.77;;;;;;;;;;5084697;28;20146;-36
2023/07/06 09:47:08;;;;;;;2.53;1.60;;;21.60;75.00;;;;;;5094567;28;20040;-39
2023/07/06 09:49:38;;;;;;;2.40;1.55;;;22.10;70.80;;;;;;5093321;28;20131;-36
2023/07/06 09:52:10;;;;;;;4.10;1.83;;;21.10;75.60;;;;;;5094242;28;20127;-40
2023/07/06 09:54:38;;;;;;;2.72;1.80;;;21.90;76.10;;;;;;5094410;28;20138;-40
2023/07/06 09:57:11;;;;;;;2.90;1.80;;;21.90;75.70;;;;;;5078771;28;20072;-40
2023/07/06 09:59:38;;;;;;;4.75;1.90;;;22.10;76.30;;;;;;5074096;28;20131;-40
2023/07/06 10:02:10;;;;;;;3.33;1.70;;;22.60;75.70;;;;;;5073748;28;20131;-40
2023/07/06 10:04:44;;;;;;;4.70;1.73;;;22.00;75.30;;;;;;5073591;28;20055;-40
2023/07/06 10:07:14;;;;;;;2.78;1.60;;;22.10;75.00;;;;;;5073861;28;20044;-40
2023/07/06 10:09:44;;;;;;;4.70;1.90;;;21.80;71.10;;;;;;5073574;28;20489;-40
2023/07/06 10:12:14;;;;;;;3.55;1.80;;;22.00;64.20;;;;;;5074399;28;20127;-36
2023/07/06 10:14:44;;;;;;;2.90;1.77;;;21.80;75.50;;;;;;5088116;28;20074;-40
2023/07/06 10:17:18;;;;;;;3.40;1.80;;;21.90;58.70;;;;;;5093599;28;20463;-35
2023/07/06 10:19:51;;;;;;;2.47;1.50;;;21.90;58.80;;;;;;5090623;28;20523;-37
2023/07/06 10:22:22;;;;;;;3.47;1.48;;;23.00;75.90;;;;;;5082544;28;20052;-40
2023/07/06 10:24:53;;;;;;;3.40;1.58;;;21.90;58.80;;;;;;5089013;28;20048;-36
2023/07/06 10:27:21;;;;;;;3.05;1.88;;;20.80;74.80;;;;;;5092664;28;20127;-40
2023/07/06 10:29:50;;;;;;;3.08;1.60;;;21.70;75.60;;;;;;5083378;28;20390;-40
2023/07/06 10:32:19;;;;;;;5.95;1.63;;;21.70;75.40;;;;;;5093256;28;20097;-39
2023/07/06 10:34:48;;;;;;;2.95;1.60;;;22.30;75.50;;;;;;5093771;28;20214;-40
2023/07/06 10:37:16;;;;;;;2.42;1.50;;;22.90;75.80;;;;;;5084686;28;20405;-40
2023/07/06 10:40:04;;;;;;;3.53;1.90;;;21.90;58.80;;;;;;5083789;28;20167;-35
2023/07/06 10:42:31;;;;;;;3.28;1.70;;;22.10;75.80;;;;;;5074513;28;20059;-38
2023/07/06 10:44:59;;;;;;;3.05;1.52;;;21.80;75.30;;;;;;5083611;28;20051;-39
2023/07/06 10:47:39;;;;;;;4.00;1.55;;;22.80;73.30;;;;;;5075366;28;20040;-31
2023/07/06 10:50:23;;;;;;;4.22;1.60;;;21.40;61.20;;;;;;5079906;28;20138;-33
2023/07/06 10:53:01;;;;;;;2.43;1.77;;;21.80;59.00;;;;;;5074566;28;20079;-35
2023/07/06 10:55:31;;;;;;;3.65;1.90;;;21.90;75.70;;;;;;5072339;28;20346;-31
2023/07/06 10:58:12;;;;;;;3.10;1.85;;;22.00;73.20;;;;;;5087622;28;20055;-30
2023/07/06 11:00:39;;;;;;;3.35;1.73;;;21.80;76.50;;;;;;5088021;28;20105;-31
2023/07/06 11:03:06;;;;;;;4.57;1.85;;;21.10;75.70;;;;;;5082198;28;20082;-32
2023/07/06 11:05:34;;;;;;;2.42;1.60;;;21.80;59.10;;;;;;5082812;28;20059;-36
2023/07/06 11:08:01;;;;;;;3.28;1.80;;;21.80;75.50;;;;;;5073266;28;20055;-34
2023/07/06 11:10:42;;;;;;;3.42;1.60;;;22.30;75.90;;;;;;5083528;28;20123;-32
2023/07/06 11:13:19;;;;;;;2.45;1.90;;;21.50;60.10;;;;;;5081104;28;20040;-32
2023/07/06 11:15:59;;;;;;;2.80;1.77;;;21.70;75.80;;;;;;5078849;28;20090;-33
2023/07/06 11:18:30;;;;;;;4.10;1.98;;;21.70;75.70;;;;;;5078403;28;20043;-32
2023/07/06 11:20:58;;;;;;;2.55;1.70;;;21.80;76.10;;;;;;5081741;28;20123;-32
2023/07/06 11:23:31;;;;;;;4.22;1.60;;;21.40;71.00;;;;;;5079441;28;20136;-32
2023/07/06 11:25:59;;;;;;;2.30;1.75;;;21.90;63.90;;;;;;5071735;28;20555;-33
2023/07/06 11:28:27;;;;;;;4.13;1.90;;;;;;;;;;5072004;28;20102;-32
2023/07/06 11:30:57;;;;;;;4.50;1.80;;;21.20;75.10;;;;;;5089805;28;20052;-32
2023/07/06 11:33:28;;;;;;;3.97;1.83;;;21.40;76.20;;;;;;5090694;28;20056;-35
2023/07/06 11:35:58;;;;;;;4.25;1.80;;;21.70;76.30;;;;;;5090683;28;20131;-31
2023/07/06 11:38:42;;;;;;;3.15;1.70;;;22.70;63.20;;;;;;5080451;28;20047;-36
2023/07/06 11:41:29;;;;;;;2.53;1.60;;;21.70;59.50;;;;;;5071240;28;20051;-35
2023/07/06 11:44:06;;;;;;;4.85;2.00;;;21.60;59.40;;;;;;5070137;28;20131;-35
2023/07/06 11:46:37;;;;;;;3.15;1.70;;;21.60;59.50;;;;;;5080973;28;20134;-34
2023/07/06 11:49:20;;;;;;;4.80;1.70;;;21.10;76.10;;;;;;5092200;28;20516;-32
2023/07/06 11:51:48;;;;;;;3.92;1.85;;;22.00;76.60;;;;;;5092425;28;20080;-32
2023/07/06 11:54:29;;;;;;;3.53;1.70;;;21.80;76.50;;;;;;5083914;28;20408;-32
2023/07/06 11:59:40;;;;;;;3.75;1.90;;;21.70;76.90;;;;;;5092016;28;20443;-33
2023/07/06 12:02:11;;;;;;;4.15;1.85;;;21.20;76.20;;;;;;5092114;28;20154;-32
2023/07/06 12:04:39;;;;;;;3.50;1.92;;;21.60;59.50;;;;;;5092242;28;20126;-35
2023/07/06 12:07:21;;;;;;;4.18;1.67;;;21.60;59.50;;;;;;5092195;28;20052;-35
2023/07/06 12:09:48;;;;;;;3.80;1.90;;;21.60;59.50;;;;;;5090516;28;20135;-35
2023/07/06 12:12:17;;;;;;;4.05;1.73;;;22.00;76.60;;;;;;5074370;28;20045;-32
2023/07/06 12:14:44;;;;;;;3.78;2.10;;;21.90;77.00;;;;;;5071589;28;20056;-33
2023/07/06 12:17:11;;;;;;;5.85;2.25;;;21.30;71.70;;;;;;5071807;28;20091;-32
2023/07/06 12:19:41;;;;;;;5.63;2.00;;;20.50;75.50;;;;;;5071769;28;20049;-32
2023/07/06 12:22:13;;;;;;;3.22;1.77;;;21.90;76.60;;;;;;5071739;28;20052;-32
2023/07/06 12:24:40;;;;;;;3.33;1.70;;;21.80;76.30;;;;;;5078518;28;20127;-39
2023/07/06 12:27:11;;;;;;;5.00;1.80;;;21.50;59.70;;;;;;5086273;28;20496;-36
2023/07/06 12:29:39;;;;;;;3.15;1.80;;;21.00;76.70;;;;;;5092000;28;20119;-39
2023/07/06 12:32:10;;;;;;;3.13;1.80;;;21.10;75.90;;;;;;5092004;28;20051;-40
2023/07/06 12:34:38;;;;;;;3.42;1.90;;;21.20;67.00;;;;;;5092098;28;20058;-35
2023/07/06 12:37:05;;;;;;;3.17;1.83;;;21.10;76.80;;;;;;5091242;28;20056;-40
2023/07/06 12:39:36;;;;;;;2.30;1.65;;;21.40;76.90;;;;;;5084920;28;20124;-37
2023/07/06 12:42:05;;;;;;;2.83;1.67;;;;;;;;;;5073793;28;20110;-33
2023/07/06 12:44:32;;;;;;;3.17;1.77;;;20.70;76.70;;;;;;5091303;28;20487;-37
2023/07/06 12:47:19;;;;;;;3.05;1.63;;;21.50;59.80;;;;;;5091954;28;20048;-38
2023/07/06 12:49:46;;;;;;;2.75;1.60;;;21.30;77.00;;;;;;5091705;28;20051;-40
2023/07/06 12:52:13;;;;;;;3.95;1.80;;;21.80;77.30;;;;;;5091709;28;20079;-38
2023/07/06 12:54:48;;;;;;;3.45;1.83;;;21.50;59.80;;;;;;5089912;28;20234;-39
2023/07/06 12:57:18;;;;;;;3.88;1.60;;;21.50;59.90;;;;;;5071254;28;20502;-35
2023/07/06 12:59:46;;;;;;;3.35;1.65;;;;;;;;;;5071458;28;20137;-35
2023/07/06 13:02:19;;;;;;;1.92;1.60;;;21.70;76.90;;;;;;5071444;28;20239;-37
2023/07/06 13:04:47;;;;;;;2.75;1.75;;;21.60;76.70;;;;;;5071491;28;20083;-38
2023/07/06 13:07:15;;;;;;;2.83;1.70;;;21.30;76.70;;;;;;5071351;28;20048;-40
2023/07/06 13:09:42;;;;;;;4.95;1.98;;;;;;;;;;5071540;28;20437;-36
2023/07/06 13:12:10;;;;;;;2.90;1.70;;;21.30;76.50;;;;;;5072722;28;20127;-39
2023/07/06 13:14:39;;;;;;;3.72;1.80;;;22.40;77.10;;;;;;5071452;28;20132;-36